Time;durP1;ratioP1;P1;durP2;ratioP2;P2;SDS_P1;SDS_P2;PMS_P1;PMS_P2;Temp;Humidity;BMP_temperature;BMP_pressure;BME280_temperature;BME280_humidity;BME280_pressure;Samples;Min_cycle;Max_cycle;Signal;HPM_P1;HPM_P2
2021/11/11 00:00:16;;;;;;;47.65;31.05;;;;;;;6.50;63.98;101073.16;5010206;28;98455;-87
2021/11/11 00:02:42;;;;;;;56.38;31.13;;;;;;;6.52;63.90;101062.75;5012799;28;97896;-86
2021/11/11 00:05:09;;;;;;;56.13;32.03;;;;;;;6.58;64.42;101084.44;4996086;28;96784;-88
2021/11/11 00:07:35;;;;;;;45.78;27.67;;;;;;;6.55;63.99;101081.84;4996737;28;97352;-88
2021/11/11 00:10:00;;;;;;;42.17;27.35;;;;;;;6.58;63.64;101097.47;4999173;28;100953;-82
2021/11/11 00:12:27;;;;;;;41.90;27.77;;;;;;;6.49;63.77;101084.50;5012937;28;100243;-85
2021/11/11 00:14:55;;;;;;;43.53;27.23;;;;;;;6.52;64.03;101097.50;5011884;28;96648;-87
2021/11/11 00:17:21;;;;;;;42.07;26.37;;;;;;;6.43;64.09;101109.72;5011971;28;97475;-88
2021/11/11 00:19:46;;;;;;;42.75;27.42;;;;;;;6.45;64.23;101106.22;5001711;28;98385;-88
2021/11/11 00:22:12;;;;;;;44.67;28.50;;;;;;;6.48;64.01;101116.63;4994916;28;101672;-88
2021/11/11 00:24:39;;;;;;;49.37;29.53;;;;;;;6.49;64.30;101102.75;4998772;28;96761;-88
2021/11/11 00:27:04;;;;;;;50.03;30.73;;;;;;;6.53;63.92;101108.81;4977845;28;96966;-88
2021/11/11 00:29:30;;;;;;;48.70;29.77;;;;;;;6.50;64.06;101104.47;4991806;28;100442;-89
2021/11/11 00:31:56;;;;;;;52.50;30.80;;;;;;;6.49;64.02;101101.88;4994913;28;101193;-87
2021/11/11 00:34:21;;;;;;;51.33;32.43;;;;;;;6.55;64.14;101097.50;4998563;28;96681;-88
2021/11/11 00:36:47;;;;;;;46.85;31.35;;;;;;;6.44;64.08;101095.81;4982407;28;96753;-87
2021/11/11 00:39:12;;;;;;;54.00;30.10;;;;;;;6.38;64.32;101107.13;4996175;28;99809;-88
2021/11/11 00:41:38;;;;;;;51.90;31.15;;;;;;;6.39;64.16;101111.47;4978788;28;101265;-88
2021/11/11 00:44:04;;;;;;;49.97;30.48;;;;;;;6.44;64.16;101106.25;4999124;28;96637;-87
2021/11/11 00:46:30;;;;;;;49.87;30.47;;;;;;;6.37;64.08;101109.72;4978214;28;96933;-87
2021/11/11 00:48:56;;;;;;;51.78;31.45;;;;;;;6.27;64.42;101111.53;4997120;28;101696;-85
2021/11/11 00:51:21;;;;;;;47.97;30.48;;;;;;;6.29;64.54;101105.44;4997861;28;98244;-87
2021/11/11 00:53:47;;;;;;;50.75;31.48;;;;;;;6.37;64.30;101104.53;4980000;28;96856;-88
2021/11/11 00:56:14;;;;;;;49.60;32.05;;;;;;;6.31;64.23;101108.03;4990355;28;96714;-88
2021/11/11 00:58:41;;;;;;;50.30;31.27;;;;;;;6.28;64.12;101093.28;4998195;28;100694;-88
2021/11/11 01:01:07;;;;;;;55.58;31.95;;;;;;;6.42;63.65;101105.38;4985945;28;102305;-87
2021/11/11 01:03:39;;;;;;;51.60;32.37;;;;;;;6.10;64.16;101086.38;5006147;28;97377;-88
2021/11/11 01:06:07;;;;;;;48.60;31.73;;;;;;;6.11;63.98;101075.09;4977575;28;97285;-87
2021/11/11 01:08:33;;;;;;;49.63;32.95;;;;;;;6.22;63.63;101098.50;4977545;28;101501;-88
2021/11/11 01:11:00;;;;;;;54.60;32.83;;;;;;;6.22;63.53;101084.59;5009137;28;101626;-87
2021/11/11 01:13:25;;;;;;;54.63;32.05;;;;;;;6.21;63.69;101086.34;4988102;28;97374;-84
2021/11/11 01:15:51;;;;;;;59.00;35.10;;;;;;;6.02;64.43;101076.84;4978097;28;96898;-88
2021/11/11 01:18:17;;;;;;;59.03;33.63;;;;;;;6.07;64.13;101068.13;4993467;27;101441;-87
2021/11/11 01:20:42;;;;;;;56.15;33.50;;;;;;;6.11;64.15;101074.22;5017447;28;101114;-88
2021/11/11 01:23:09;;;;;;;62.43;33.90;;;;;;;6.21;64.07;101082.88;5035159;27;96674;-88
2021/11/11 01:25:37;;;;;;;56.77;32.97;;;;;;;6.14;64.07;101084.66;5000965;28;96612;-88
2021/11/11 01:28:05;;;;;;;60.00;34.30;;;;;;;6.24;63.79;101085.47;5002977;27;101591;-83
2021/11/11 01:30:34;;;;;;;62.07;33.73;;;;;;;6.11;63.97;101092.47;5017546;27;101889;-88
2021/11/11 01:33:06;;;;;;;57.92;33.75;;;;;;;5.93;65.05;101085.56;5005776;27;97235;-87
2021/11/11 01:35:32;;;;;;;59.20;33.80;;;;;;;6.00;64.68;101089.03;5017519;28;96944;-88
2021/11/11 01:37:59;;;;;;;68.60;35.40;;;;;;;6.04;64.30;101085.53;5014037;27;101441;-88
2021/11/11 01:40:26;;;;;;;64.83;35.17;;;;;;;5.88;64.36;101062.09;5003880;27;101161;-85
2021/11/11 01:42:59;;;;;;;62.73;33.90;;;;;;;5.97;64.34;101081.22;5021338;27;97314;-88
2021/11/11 01:45:34;;;;;;;56.43;33.27;;;;;;;6.03;64.11;101073.38;5019722;27;97180;-88
2021/11/11 01:48:07;;;;;;;62.57;34.77;;;;;;;5.87;64.88;101077.72;5000746;28;100045;-83
2021/11/11 01:50:34;;;;;;;57.40;31.90;;;;;;;5.90;64.64;101076.00;5000547;27;100818;-88
2021/11/11 01:53:01;;;;;;;61.33;32.97;;;;;;;5.90;64.27;101077.72;5003993;27;97276;-87
2021/11/11 01:55:28;;;;;;;57.70;33.60;;;;;;;5.94;64.76;101076.03;5001526;27;96867;-86
2021/11/11 01:57:58;;;;;;;60.37;33.63;;;;;;;5.87;64.74;101064.69;5014235;28;101495;-87
2021/11/11 02:00:27;;;;;;;63.80;33.47;;;;;;;5.86;64.60;101063.84;4984668;27;101623;-84
2021/11/11 02:02:56;;;;;;;56.40;33.83;;;;;;;5.88;64.85;101066.44;5015547;28;96871;-88
2021/11/11 02:05:51;;;;;;;61.60;33.10;;;;;;;5.98;64.42;101062.97;5009322;28;96903;-87
2021/11/11 02:08:26;;;;;;;64.53;35.55;;;;;;;5.79;64.48;101063.84;5020287;27;101822;-87
2021/11/11 02:10:53;;;;;;;70.03;35.30;;;;;;;5.83;64.25;101063.84;5002508;27;101201;-88
2021/11/11 02:13:19;;;;;;;69.53;37.90;;;;;;;5.82;64.17;101051.69;5020385;27;97091;-88
2021/11/11 02:15:44;;;;;;;62.77;33.90;;;;;;;5.73;64.21;101025.69;5017143;27;97271;-87
2021/11/11 02:18:11;;;;;;;71.30;38.20;;;;;;;5.79;64.07;101037.78;5002040;27;100670;-87
2021/11/11 02:20:41;;;;;;;64.93;35.33;;;;;;;5.88;64.11;101064.72;5000705;28;101226;-87
2021/11/11 02:23:16;;;;;;;70.73;38.00;;;;;;;5.79;64.60;101043.00;5018785;27;96757;-88
2021/11/11 02:26:03;;;;;;;64.37;37.57;;;;;;;5.64;64.60;101037.00;5016771;27;97823;-87
2021/11/11 02:28:43;;;;;;;;;;;;;;;5.76;64.03;101069.97;5009104;27;99785;-87
2021/11/11 02:31:09;;;;;;;67.80;37.27;;;;;;;5.75;64.00;101055.19;5019699;27;98172;-87
2021/11/11 02:33:39;;;;;;;67.63;37.07;;;;;;;5.80;64.18;101052.56;5035942;27;96845;-87
2021/11/11 02:36:10;;;;;;;66.93;40.40;;;;;;;5.86;64.33;101062.97;5020480;27;96675;-88
2021/11/11 02:38:36;;;;;;;66.47;38.77;;;;;;;5.77;64.53;101056.03;5002865;27;99925;-88
2021/11/11 02:41:02;;;;;;;75.53;41.20;;;;;;;5.69;64.40;101065.63;5019628;27;101681;-88
2021/11/11 02:43:28;;;;;;;69.87;37.87;;;;;;;5.48;64.57;101042.22;5001924;27;96780;-87
2021/11/11 02:45:58;;;;;;;71.53;40.27;;;;;;;5.44;65.06;101070.88;5004422;27;96857;-87
2021/11/11 03:42:34;;;;;;;54.77;32.67;;;;;;;5.29;64.45;101024.00;5744849;23;99017;-82
2021/11/11 06:36:28;;;;;;;53.90;35.25;;;;;;;4.81;64.61;101012.75;5963951;23;98371;31
2021/11/11 06:38:54;;;;;;;61.03;36.77;;;;;;;4.78;64.71;101023.16;4882606;28;96085;-87
2021/11/11 06:41:20;;;;;;;62.80;36.30;;;;;;;4.58;65.16;101010.13;4853809;29;96147;-85
2021/11/11 07:49:43;;;;;;;52.95;35.58;;;;;;;11.45;49.79;101004.19;5527892;23;99357;-88
2021/11/11 07:52:10;;;;;;;48.72;34.28;;;;;;;11.59;49.86;101011.72;4873441;28;96892;-89
2021/11/11 07:54:36;;;;;;;53.08;35.92;;;;;;;12.10;49.52;101012.94;4882983;28;96668;-90
2021/11/11 07:57:02;;;;;;;52.05;34.83;;;;;;;12.07;48.85;101011.28;4859782;28;96810;-90
2021/11/11 07:59:27;;;;;;;51.50;36.63;;;;;;;12.40;48.92;101016.44;4857430;28;99768;-89
2021/11/11 08:01:53;;;;;;;50.30;35.65;;;;;;;12.59;48.76;101006.19;4859763;28;97287;-91
2021/11/11 08:04:19;;;;;;;45.70;34.08;;;;;;;13.08;48.42;101010.72;4858923;28;96883;-91
2021/11/11 08:06:45;;;;;;;50.47;34.20;;;;;;;13.32;47.32;101008.19;4858688;28;96898;-92
2021/11/11 08:09:10;;;;;;;56.15;39.22;;;;;;;13.52;47.12;100997.81;4855227;28;101674;-92
2021/11/11 08:11:36;;;;;;;49.63;34.60;;;;;;;13.79;46.99;101006.53;4854410;28;100780;-92
2021/11/11 08:14:05;;;;;;;43.65;34.80;;;;;;;14.12;46.28;101002.69;4857999;28;96736;-92
2021/11/11 08:16:31;;;;;;;47.65;36.30;;;;;;;14.45;45.49;100997.88;4842532;29;96770;-92
2021/11/11 08:18:58;;;;;;;44.05;33.58;;;;;;;14.81;44.55;100998.25;4847901;28;100197;-87
2021/11/11 08:21:24;;;;;;;43.50;32.33;;;;;;;15.22;44.01;100997.44;4852507;28;100995;-93
2021/11/11 08:23:49;;;;;;;40.35;31.10;;;;;;;15.49;43.30;100995.38;4870294;28;96805;-90
2021/11/11 08:26:15;;;;;;;41.13;33.40;;;;;;;15.92;42.66;100996.16;4837350;28;97601;-91
2021/11/11 08:28:40;;;;;;;42.30;32.55;;;;;;;16.17;42.48;100998.50;4867585;28;100867;-90
2021/11/11 08:31:06;;;;;;;46.42;36.33;;;;;;;16.29;41.85;100993.50;4872653;28;98291;-91
2021/11/11 08:33:32;;;;;;;43.08;33.40;;;;;;;16.54;41.43;100989.69;4850183;28;96886;-92
2021/11/11 08:35:58;;;;;;;42.15;35.30;;;;;;;16.95;40.27;100989.47;4864448;28;96882;-90
2021/11/11 08:38:23;;;;;;;41.33;34.53;;;;;;;17.28;40.06;100997.53;4853729;28;101337;-91
2021/11/11 08:40:49;;;;;;;40.22;32.03;;;;;;;17.52;39.67;100987.44;4867248;28;98017;-90
2021/11/11 08:43:14;;;;;;;38.22;30.58;;;;;;;17.89;38.90;100996.16;4867202;28;96876;-88
2021/11/11 08:45:45;;;;;;;40.90;34.35;;;;;;;18.36;38.05;100987.34;4860233;28;96826;-90
2021/11/11 08:48:11;;;;;;;39.35;30.77;;;;;;;18.45;37.96;100994.81;4861669;28;100132;-91
2021/11/11 08:50:37;;;;;;;39.75;31.33;;;;;;;18.84;37.72;100990.84;4861338;28;97797;-87
2021/11/11 08:53:06;;;;;;;45.17;34.05;;;;;;;19.04;37.41;100994.16;4858950;28;96834;-88
2021/11/11 08:55:32;;;;;;;41.60;32.45;;;;;;;19.46;36.74;100982.75;4844247;28;97201;-89
2021/11/11 08:57:59;;;;;;;38.20;32.65;;;;;;;19.79;36.38;100987.84;4875823;28;98678;-88
2021/11/11 09:00:30;;;;;;;38.83;32.08;;;;;;;20.04;35.67;100984.50;4840789;28;101150;-86
2021/11/11 09:02:57;;;;;;;34.10;30.40;;;;;;;20.05;35.88;100985.34;4845579;28;97310;-88
2021/11/11 09:05:24;;;;;;;32.90;29.27;;;;;;;20.29;35.54;100985.59;4845456;28;97256;-88
2021/11/11 09:07:51;;;;;;;32.75;28.65;;;;;;;20.48;35.49;100982.63;4856333;28;98792;-90
2021/11/11 09:10:19;;;;;;;30.25;26.40;;;;;;;20.37;35.47;100987.78;4877120;28;98347;-88
2021/11/11 09:12:46;;;;;;;30.13;26.92;;;;;;;20.29;35.85;100994.44;4867345;28;96729;-89
2021/11/11 09:15:13;;;;;;;30.52;26.48;;;;;;;20.40;35.68;100990.25;4856327;28;96879;-90
2021/11/11 09:17:39;;;;;;;30.33;27.15;;;;;;;20.55;35.48;100975.94;4838546;28;101023;-88
2021/11/11 09:20:10;;;;;;;30.58;27.33;;;;;;;20.55;35.18;100978.59;4859839;28;100013;-89
2021/11/11 09:22:36;;;;;;;30.45;26.75;;;;;;;20.80;35.30;100976.03;4855228;28;97392;-91
2021/11/11 09:25:06;;;;;;;30.63;25.63;;;;;;;20.84;34.87;100970.50;4840779;28;97373;-88
2021/11/11 09:27:32;;;;;;;30.77;25.38;;;;;;;20.77;35.29;100970.06;4868464;28;100474;-85
2021/11/11 09:29:58;;;;;;;26.15;23.55;;;;;;;20.87;35.24;100975.63;4856343;28;100191;-89
2021/11/11 09:32:24;;;;;;;25.88;23.33;;;;;;;20.69;35.34;100978.56;4856389;28;96741;-87
2021/11/11 09:34:49;;;;;;;27.98;25.08;;;;;;;20.48;35.67;100978.13;4841320;28;96776;-88
2021/11/11 09:37:15;;;;;;;28.33;25.63;;;;;;;20.34;36.12;100986.16;4856544;28;98563;-94
2021/11/11 09:39:40;;;;;;;25.30;22.70;;;;;;;20.16;36.35;100995.31;4841951;28;101144;-91
2021/11/11 09:42:07;;;;;;;26.10;23.33;;;;;;;19.86;36.70;101001.63;4856771;28;96824;-91
2021/11/11 09:44:33;;;;;;;28.27;25.45;;;;;;;19.66;36.95;101000.19;4841873;28;96827;-92
2021/11/11 09:46:58;;;;;;;25.10;22.80;;;;;;;19.50;37.20;100991.41;4854135;28;98024;-86
2021/11/11 09:49:26;;;;;;;23.52;21.08;;;;;;;19.51;37.41;100990.44;4852010;28;101546;-82
2021/11/11 09:51:52;;;;;;;24.92;22.40;;;;;;;19.31;37.49;100975.69;4857127;28;97027;-83
2021/11/11 09:59:38;;;;;;;25.75;23.10;;;;;;;18.93;38.61;100977.00;4859207;28;101285;-82
2021/11/11 10:02:04;;;;;;;25.52;22.92;;;;;;;18.90;38.33;100977.19;4858937;28;96663;-83
2021/11/11 10:04:30;;;;;;;24.92;22.60;;;;;;;18.69;38.59;100965.97;4842225;28;96900;-83
2021/11/11 10:06:56;;;;;;;25.83;23.17;;;;;;;18.69;38.96;100973.94;4857713;28;101847;-83
2021/11/11 10:09:24;;;;;;;26.65;23.13;;;;;;;18.69;39.25;100973.09;4840206;28;101496;-83
2021/11/11 10:12:02;;;;;;;25.77;23.25;;;;;;;18.60;39.50;100960.31;4864863;28;97353;-82
2021/11/11 10:14:29;;;;;;;24.77;22.30;;;;;;;18.47;39.69;100963.69;4872524;28;96830;-87
2021/11/11 10:16:58;;;;;;;26.52;23.90;;;;;;;18.30;39.91;100964.63;4835189;28;101219;-83
2021/11/11 10:19:26;;;;;;;26.40;23.80;;;;;;;18.15;40.09;100960.19;4855967;28;97988;-84
2021/11/11 10:22:05;;;;;;;26.95;24.25;;;;;;;17.93;40.56;100973.78;4858935;28;98276;-84
2021/11/11 10:24:50;;;;;;;26.15;23.02;;;;;;;17.81;41.16;100967.34;4857756;28;96725;-94
2021/11/11 10:27:38;;;;;;;26.63;23.92;;;;;;;17.62;41.76;100964.75;4840916;28;101870;-85
2021/11/11 10:30:28;;;;;;;27.17;24.48;;;;;;;17.21;42.10;100964.28;4867915;28;99827;-85
2021/11/11 10:33:09;;;;;;;25.45;22.92;;;;;;;16.92;43.09;100961.31;4865977;28;96832;-85
2021/11/11 10:35:36;;;;;;;26.48;23.70;;;;;;;16.63;43.33;100960.06;4851654;28;96976;-87
2021/11/11 10:38:06;;;;;;;27.45;24.52;;;;;;;16.40;44.13;100961.19;4841299;28;101324;-86
2021/11/11 10:40:41;;;;;;;26.83;23.90;;;;;;;16.18;44.97;100968.47;4860072;28;98514;-87
2021/11/11 10:43:12;;;;;;;27.50;24.80;;;;;;;16.04;44.62;100967.31;4858489;28;96799;-87
2021/11/11 10:45:41;;;;;;;26.47;23.83;;;;;;;15.93;45.31;100972.22;4857422;28;97520;-86
2021/11/11 10:48:10;;;;;;;27.60;24.83;;;;;;;15.80;45.71;100977.25;4856531;28;101373;-86
2021/11/11 10:50:45;;;;;;;28.42;25.52;;;;;;;15.58;46.51;100973.81;4869960;28;101509;-87
2021/11/11 10:53:20;;;;;;;30.35;25.77;;;;;;;15.39;47.22;100981.69;4870896;28;96850;-87
2021/11/11 10:55:50;;;;;;;29.77;26.00;;;;;;;15.25;47.29;100984.09;4857526;28;97310;-87
2021/11/11 10:58:28;;;;;;;27.98;25.08;;;;;;;15.09;47.81;100976.78;4867097;28;101657;-87
2021/11/11 11:00:59;;;;;;;27.77;24.77;;;;;;;14.92;47.86;100984.56;4853292;28;101392;-87
2021/11/11 11:03:46;;;;;;;29.35;26.35;;;;;;;14.78;48.69;100974.56;4839990;28;97351;-87
2021/11/11 11:06:15;;;;;;;29.00;25.85;;;;;;;14.61;48.69;100977.91;4867659;28;97050;-87
2021/11/11 11:08:54;;;;;;;30.08;26.92;;;;;;;14.39;49.60;100975.22;4850909;28;101428;-87
2021/11/11 11:11:23;;;;;;;32.22;27.50;;;;;;;14.36;49.54;100974.47;4853612;28;100581;-87
2021/11/11 11:13:53;;;;;;;30.23;27.02;;;;;;;14.20;50.14;100972.44;4838484;28;97291;-86
2021/11/11 11:16:41;;;;;;;30.60;26.42;;;;;;;14.14;50.52;100974.47;4852653;28;96815;-87
2021/11/11 11:19:15;;;;;;;28.35;25.55;;;;;;;14.06;50.32;100977.41;4857137;28;101085;-87
2021/11/11 11:21:45;;;;;;;28.45;25.40;;;;;;;13.88;50.98;100980.72;4856523;28;101515;-87
2021/11/11 11:24:17;;;;;;;29.70;25.20;;;;;;;13.93;50.96;100960.28;4860990;28;96794;-87
2021/11/11 11:26:51;;;;;;;29.65;26.65;;;;;;;13.82;51.00;100963.34;4865379;28;97277;-87
2021/11/11 11:29:30;;;;;;;27.50;24.63;;;;;;;13.71;51.76;100969.00;4870633;28;100125;-87
2021/11/11 11:32:06;;;;;;;30.10;24.10;;;;;;;13.65;51.74;100955.19;4837914;28;101656;-87
2021/11/11 11:34:52;;;;;;;27.90;24.95;;;;;;;13.57;51.65;100961.59;4871347;28;97888;-87
2021/11/11 11:37:21;;;;;;;27.48;24.65;;;;;;;13.53;52.07;100962.63;4871302;28;96842;-87
2021/11/11 11:39:49;;;;;;;28.15;25.00;;;;;;;13.49;52.30;100955.72;4858518;28;102049;-87
2021/11/11 11:42:21;;;;;;;32.15;26.90;;;;;;;13.38;52.68;100959.66;4852973;28;99975;-85
2021/11/11 11:44:51;;;;;;;29.50;26.42;;;;;;;13.41;52.83;100960.44;4842262;28;97250;-87
2021/11/11 11:47:24;;;;;;;30.37;27.10;;;;;;;13.30;52.85;100960.81;4842522;28;97454;-87
2021/11/11 11:49:55;;;;;;;30.25;26.75;;;;;;;13.36;53.58;100955.31;4862575;28;101339;-90
2021/11/11 12:08:20;;;;;;;30.80;26.65;;;;;;;13.07;53.61;100961.56;4839152;29;97261;-80
2021/11/11 12:11:16;;;;;;;31.67;25.52;;;;;;;13.07;53.94;100964.22;4847681;28;96674;-92
2021/11/11 12:13:51;;;;;;;29.75;24.73;;;;;;;13.03;54.21;100961.72;4854897;28;97887;-93
2021/11/11 12:16:32;;;;;;;28.48;25.40;;;;;;;12.95;53.67;100962.00;4826182;28;100805;-91
2021/11/11 12:39:29;;;;;;;35.05;26.17;;;;;;;12.69;54.23;100932.09;4860271;28;98680;-78
2021/11/11 12:41:57;;;;;;;29.17;25.95;;;;;;;12.75;53.88;100931.03;4858325;28;100354;-79
2021/11/11 12:44:23;;;;;;;30.13;26.13;;;;;;;12.71;53.95;100928.56;4839694;28;97282;-85
2021/11/11 12:46:49;;;;;;;28.33;25.15;;;;;;;12.67;54.04;100931.28;4825927;28;96954;-84
2021/11/11 12:49:35;;;;;;;33.47;28.00;;;;;;;12.59;54.14;100935.09;4822783;28;99879;-83
2021/11/11 12:52:25;;;;;;;35.55;28.63;;;;;;;12.52;54.07;100929.16;4831458;28;101428;-83
2021/11/11 12:55:17;;;;;;;29.80;26.42;;;;;;;12.49;54.58;100931.91;4858859;28;96722;-82
2021/11/11 12:57:57;;;;;;;35.72;27.92;;;;;;;12.43;54.13;100927.69;4859745;28;96907;-83
2021/11/11 13:00:45;;;;;;;34.95;28.05;;;;;;;12.41;53.73;100926.88;4858289;28;100372;-84
2021/11/11 13:03:11;;;;;;;33.40;27.65;;;;;;;12.34;54.31;100922.72;4852971;28;101165;-84
2021/11/11 13:05:55;;;;;;;34.17;28.05;;;;;;;12.34;53.94;100916.59;4843014;28;96965;-83
2021/11/11 13:08:24;;;;;;;30.48;26.85;;;;;;;12.36;54.45;100927.91;4845316;28;97318;-83
2021/11/11 13:10:58;;;;;;;37.13;29.40;;;;;;;12.38;54.33;100931.38;4845905;28;99663;-84
2021/11/11 13:13:27;;;;;;;38.38;27.92;;;;;;;12.27;54.47;100921.16;4849590;28;100369;-83
2021/11/11 13:16:14;;;;;;;36.97;30.88;;;;;;;12.27;55.21;100936.97;4878929;28;97257;-83
2021/11/11 13:18:44;;;;;;;35.53;30.15;;;;;;;12.22;55.38;100938.91;4860268;28;96937;-83
2021/11/11 13:21:09;;;;;;;35.45;28.63;;;;;;;12.22;55.30;100937.13;4861254;28;100159;-83
2021/11/11 13:23:42;;;;;;;33.03;28.48;;;;;;;12.21;55.47;100945.06;4878480;28;98064;-83
2021/11/11 13:26:52;;;;;;;30.38;26.92;;;;;;;12.12;55.47;100947.97;4864143;28;96731;-83
2021/11/11 14:00:32;;;;;;;34.13;27.70;;;;;;;11.60;56.76;100942.44;4885841;28;97243;-82
2021/11/11 15:20:06;;;;;;;57.08;38.17;;;;;;;10.32;59.94;100941.38;4876327;29;96512;-82
2021/11/11 16:29:04;;;;;;;50.90;37.60;;;;;;;9.18;61.98;100977.72;5675719;23;98869;-84
2021/11/11 16:49:49;;;;;;;68.30;43.10;;;;;;;8.91;62.51;100975.63;4877602;28;97054;-84
2021/11/11 16:52:15;;;;;;;73.25;43.10;;;;;;;8.93;61.93;100984.28;4918964;23;1327982;-86
2021/11/11 16:57:24;;;;;;;64.03;42.45;;;;;;;8.88;62.34;100971.28;5236483;23;99537;-85
2021/11/11 17:00:20;;;;;;;57.22;39.03;;;;;;;8.87;62.16;100979.16;4918611;28;98032;-86
2021/11/11 17:02:48;;;;;;;63.90;43.38;;;;;;;8.81;62.38;100987.97;4906236;28;95680;-85
2021/11/11 17:05:14;;;;;;;67.45;44.45;;;;;;;8.70;62.28;100980.31;4891677;28;96345;-85
2021/11/11 17:07:42;;;;;;;65.10;43.83;;;;;;;8.72;62.73;100993.34;4891118;28;99618;-84
2021/11/11 17:10:08;;;;;;;61.63;43.08;;;;;;;8.80;62.15;100994.97;4888393;28;99809;-85
2021/11/11 17:17:59;;;;;;;58.30;41.30;;;;;;;8.66;62.50;100994.31;5893201;23;100422;-81
2021/11/11 17:24:12;;;;;;;60.67;41.80;;;;;;;8.69;62.27;101002.13;4888428;28;95815;-86
2021/11/11 17:55:49;;;;;;;62.35;40.97;;;;;;;8.42;61.92;100998.16;4903012;28;99495;-86
2021/11/11 17:58:17;;;;;;;70.85;46.22;;;;;;;8.36;62.33;101006.06;4867199;28;95883;-84
2021/11/11 18:00:52;;;;;;;69.25;45.55;;;;;;;8.25;62.82;101005.34;5587871;23;101110;-82
2021/11/11 18:21:37;;;;;;;83.38;48.17;;;;;;;8.18;62.73;101008.94;5294115;23;98280;-87
2021/11/11 18:24:03;;;;;;;78.43;47.70;;;;;;;8.12;62.57;101013.38;4871983;28;96049;-85
2021/11/11 18:26:29;;;;;;;78.93;46.05;;;;;;;8.07;62.74;101019.53;4871769;28;98102;-86
2021/11/11 18:29:43;;;;;;;71.43;45.33;;;;;;;8.12;63.17;101018.59;4871188;28;99682;-85
2021/11/11 18:32:12;;;;;;;77.78;47.53;;;;;;;8.10;62.68;101017.75;4884564;28;95900;-85
2021/11/11 18:50:03;;;;;;;78.10;47.83;;;;;;;7.90;62.78;101033.66;5389946;23;100697;-85
2021/11/11 18:52:30;;;;;;;103.70;59.38;;;;;;;7.92;63.03;101020.59;4873356;28;99798;-83
2021/11/11 18:55:04;;;;;;;99.60;56.33;;;;;;;7.85;63.08;101024.16;4890120;28;96690;-86
2021/11/11 19:17:47;;;;;;;78.28;52.03;;;;;;;7.76;63.14;101038.19;5462409;23;99373;-85
2021/11/11 19:27:05;;;;;;;69.75;45.60;;;;;;;7.76;63.24;101038.19;4933688;23;97790;-86
2021/11/11 19:29:38;;;;;;;76.00;45.45;;;;;;;7.69;63.46;101033.91;5010284;23;98831;-86
2021/11/11 19:46:17;;;;;;;70.63;48.35;;;;;;;7.50;63.45;101043.69;4999501;23;99815;-84
2021/11/11 19:54:17;;;;;;;68.72;47.08;;;;;;;7.45;63.97;101043.75;4846624;28;95989;-81
2021/11/11 20:12:48;;;;;;;71.95;45.97;;;;;;;7.24;64.56;101046.53;4900466;28;96655;-81
2021/11/11 21:43:06;;;;;;;78.68;51.50;;;;;;;6.66;64.70;101045.25;5874865;23;98548;-87
2021/11/11 21:45:37;;;;;;;91.20;57.20;;;;;;;6.53;64.70;101043.59;5429333;23;99862;31
2021/11/11 23:46:56;;;;;;;71.43;46.93;;;;;;;5.72;64.21;101018.72;4849851;29;95971;-83
